createdAt,value
2018-01-20T00:00:28.532Z,100483.03
2018-01-20T00:02:54.279Z,100478.24
2018-01-20T00:05:20.300Z,100472.59
2018-01-20T00:07:46.176Z,100482.17
2018-01-20T00:10:20.218Z,100476.52
2018-01-20T00:12:45.962Z,100476.51
2018-01-20T00:15:11.957Z,100475.64
2018-01-20T00:17:37.716Z,100475.21
2018-01-20T00:20:03.885Z,100481.74
2018-01-20T00:22:29.666Z,100480.00
2018-01-20T00:25:01.415Z,100474.80
2018-01-20T00:27:27.324Z,100476.07
2018-01-20T00:29:53.073Z,100474.77
2018-01-20T00:32:18.830Z,100475.63
2018-01-20T00:34:44.587Z,100477.80
2018-01-20T00:37:10.386Z,100475.20
2018-01-20T00:39:36.144Z,100473.89
2018-01-20T00:42:01.922Z,100467.37
2018-01-20T00:44:27.678Z,100475.19
2018-01-20T00:46:53.434Z,100470.85
2018-01-20T00:49:19.215Z,100469.98
2018-01-20T00:51:44.974Z,100483.89
2018-01-20T00:54:10.718Z,100476.48
2018-01-20T00:56:36.483Z,100473.03
2018-01-20T00:59:02.346Z,100471.70
2018-01-20T01:01:28.382Z,100470.84
2018-01-20T01:03:54.130Z,100471.27
2018-01-20T01:06:19.956Z,100471.28
2018-01-20T01:08:45.660Z,100481.70
2018-01-20T01:11:11.495Z,100477.78
2018-01-20T01:13:37.548Z,100477.37
2018-01-20T01:16:03.330Z,100474.31
2018-01-20T01:18:29.079Z,100486.47
2018-01-20T01:20:54.844Z,100480.38
2018-01-20T01:23:20.582Z,100481.67
2018-01-20T01:25:46.378Z,100478.21
2018-01-20T01:28:12.128Z,100481.27
2018-01-20T01:30:37.891Z,100475.61
2018-01-20T01:33:03.625Z,100486.90
2018-01-20T01:35:29.527Z,100481.25
2018-01-20T01:37:55.286Z,100477.77
2018-01-20T01:40:21.054Z,100481.69
2018-01-20T01:42:46.802Z,100483.41
2018-01-20T01:45:12.565Z,100487.34
2018-01-20T01:47:38.326Z,100487.78
2018-01-20T01:50:04.094Z,100482.56
2018-01-20T01:52:30.114Z,100475.58
2018-01-20T01:54:55.863Z,100474.73
2018-01-20T01:57:21.693Z,100479.93
2018-01-20T01:59:47.507Z,100475.14
2018-01-20T02:02:13.275Z,100472.98
2018-01-20T02:04:39.267Z,100474.28
2018-01-20T02:07:05.154Z,100469.92
2018-01-20T02:09:30.898Z,100470.79
2018-01-20T02:11:56.660Z,100467.33
2018-01-20T02:14:22.403Z,100469.05
2018-01-20T02:16:48.159Z,100465.57
2018-01-20T02:19:13.930Z,100466.42
2018-01-20T02:21:39.694Z,100469.91
2018-01-20T02:24:05.443Z,100464.69
2018-01-20T02:26:31.627Z,100463.38
2018-01-20T02:28:57.389Z,100461.20
2018-01-20T02:31:23.131Z,100462.50
2018-01-20T02:33:48.886Z,100461.61
2018-01-20T02:36:14.655Z,100459.02
2018-01-20T02:38:40.425Z,100460.75
2018-01-20T02:41:06.171Z,100457.28
2018-01-20T02:43:31.932Z,100455.97
2018-01-20T02:45:57.691Z,100448.17
2018-01-20T02:48:23.459Z,100451.18
2018-01-20T02:50:49.203Z,100449.45
2018-01-20T02:53:14.973Z,100450.35
2018-01-20T02:55:40.732Z,100444.27
2018-01-20T02:58:06.504Z,100442.08
2018-01-20T03:00:32.264Z,100439.06
2018-01-20T03:02:58.031Z,100435.56
2018-01-20T03:05:23.802Z,100432.52
2018-01-20T03:07:49.570Z,100436.02
2018-01-20T03:10:15.326Z,100434.70
2018-01-20T03:12:41.087Z,100442.08
2018-01-20T03:15:06.855Z,100441.67
2018-01-20T03:17:32.599Z,100443.81
2018-01-20T03:19:58.358Z,100447.30
2018-01-20T03:22:24.120Z,100441.23
2018-01-20T03:24:49.874Z,100440.79
2018-01-20T03:27:15.602Z,100433.83
2018-01-20T03:29:41.355Z,100434.70
2018-01-20T03:32:07.087Z,100432.54
2018-01-20T03:34:32.846Z,100432.11
2018-01-20T03:36:58.585Z,100434.69
2018-01-20T03:39:24.342Z,100434.69
2018-01-20T03:41:50.089Z,100425.12
2018-01-20T03:44:15.839Z,100423.39
2018-01-20T03:46:41.582Z,100428.61
2018-01-20T03:49:07.322Z,100422.51
2018-01-20T03:51:33.078Z,100424.26
2018-01-20T03:53:58.838Z,100417.74
2018-01-20T03:56:24.599Z,100408.19
2018-01-20T03:58:50.355Z,100410.78
2018-01-20T04:01:16.126Z,100412.98
2018-01-20T04:03:41.858Z,100402.55
2018-01-20T04:06:07.597Z,100403.85
2018-01-20T04:08:33.337Z,100408.16
2018-01-20T04:10:59.088Z,100400.36
2018-01-20T04:13:24.819Z,100403.39
2018-01-20T04:15:50.569Z,100403.86
2018-01-20T04:18:16.312Z,100399.49
2018-01-20T04:20:42.054Z,100411.66
2018-01-20T04:23:07.868Z,100421.22
2018-01-20T04:25:33.603Z,100416.00
2018-01-20T04:27:59.343Z,100424.27
2018-01-20T04:30:25.079Z,100422.50
2018-01-20T04:32:50.836Z,100413.82
2018-01-20T04:35:16.578Z,100412.95
2018-01-20T04:37:42.325Z,100414.26
2018-01-20T04:40:08.066Z,100419.91
2018-01-20T04:42:33.814Z,100415.99
2018-01-20T04:44:59.558Z,100415.55
2018-01-20T04:47:25.310Z,100412.06
2018-01-20T04:49:51.059Z,100414.27
2018-01-20T04:52:16.820Z,100409.45
2018-01-20T04:54:42.567Z,100419.48
2018-01-20T04:57:08.323Z,100413.39
2018-01-20T04:59:34.070Z,100417.70
2018-01-20T05:01:59.820Z,100416.84
2018-01-20T05:04:25.560Z,100405.98
2018-01-20T05:06:51.315Z,100413.37
2018-01-20T05:09:17.043Z,100406.84
2018-01-20T05:11:42.793Z,100407.29
2018-01-20T05:14:08.542Z,100400.80
2018-01-20T05:16:34.302Z,100402.52
2018-01-20T05:19:00.042Z,100401.23
2018-01-20T05:21:25.774Z,100407.77
2018-01-20T05:23:51.536Z,100402.53
2018-01-20T05:26:17.276Z,100401.24
2018-01-20T05:28:43.027Z,100399.93
2018-01-20T05:31:08.814Z,100396.03
2018-01-20T05:33:34.530Z,100396.44
2018-01-20T05:36:00.258Z,100397.75
2018-01-20T05:40:58.519Z,100387.33
2018-01-20T05:43:24.263Z,100390.80
2018-01-20T05:45:50.003Z,100388.61
2018-01-20T05:48:15.753Z,100384.71
2018-01-20T05:50:41.514Z,100388.59
2018-01-20T05:53:07.269Z,100385.15
2018-01-20T05:55:33.005Z,100386.44
2018-01-20T05:57:58.735Z,100387.73
2018-01-20T06:00:24.498Z,100388.59
2018-01-20T06:02:50.235Z,100390.78
2018-01-20T06:05:15.983Z,100382.08
2018-01-20T06:07:41.730Z,100385.11
2018-01-20T06:10:07.479Z,100395.09
2018-01-20T06:12:33.217Z,100391.17
2018-01-20T06:14:58.950Z,100389.44
2018-01-20T06:17:24.678Z,100389.87
2018-01-20T06:19:50.417Z,100382.48
2018-01-20T06:22:16.190Z,100386.83
2018-01-20T06:24:41.951Z,100382.94
2018-01-20T06:27:07.697Z,100381.17
2018-01-20T06:29:33.446Z,100378.98
2018-01-20T06:31:59.180Z,100381.16
2018-01-20T06:34:24.930Z,100379.84
2018-01-20T06:36:50.669Z,100387.23
2018-01-20T06:39:16.394Z,100382.85
2018-01-20T06:41:42.134Z,100386.77
2018-01-20T06:44:07.862Z,100394.60
2018-01-20T06:46:33.602Z,100389.81
2018-01-20T06:48:59.347Z,100384.16
2018-01-20T06:51:25.089Z,100381.12
2018-01-20T06:53:50.829Z,100382.43
2018-01-20T06:56:16.585Z,100375.50
2018-01-20T06:58:42.334Z,100375.94
2018-01-20T07:01:08.090Z,100374.19
2018-01-20T07:03:33.839Z,100370.27
2018-01-20T07:05:59.606Z,100367.23
2018-01-20T07:08:25.347Z,100374.61
2018-01-20T07:10:51.090Z,100385.48
2018-01-20T07:13:16.836Z,100378.55
2018-01-20T07:15:42.604Z,100382.02
2018-01-20T07:18:08.347Z,100383.32
2018-01-20T07:20:34.087Z,100390.28
2018-01-20T07:22:59.838Z,100385.08
2018-01-20T07:25:25.584Z,100388.55
2018-01-20T07:27:51.327Z,100391.59
2018-01-20T07:30:17.069Z,100386.84
2018-01-20T07:32:42.815Z,100383.81
2018-01-20T07:35:08.556Z,100391.61
2018-01-20T07:37:34.291Z,100382.08
2018-01-20T07:40:00.038Z,100386.41
2018-01-20T07:42:25.816Z,100387.73
2018-01-20T07:44:51.554Z,100389.91
2018-01-20T07:47:17.304Z,100393.40
2018-01-20T07:49:43.051Z,100394.69
2018-01-20T07:52:08.803Z,100399.03
2018-01-20T07:54:34.555Z,100389.94
2018-01-20T07:57:00.313Z,100392.09
2018-01-20T07:59:26.063Z,100389.05
2018-01-20T08:01:51.807Z,100394.70
2018-01-20T08:04:17.561Z,100386.02
2018-01-20T08:06:43.315Z,100388.22
2018-01-20T08:09:09.066Z,100387.78
2018-01-20T08:11:34.799Z,100388.20
2018-01-20T08:14:00.560Z,100389.92
2018-01-20T08:16:26.401Z,100386.91
2018-01-20T08:18:52.167Z,100390.84
2018-01-20T08:21:17.907Z,100394.75
2018-01-20T08:23:43.642Z,100387.81
2018-01-20T08:26:09.370Z,100389.97
2018-01-20T08:28:35.122Z,100382.17
2018-01-20T08:31:00.878Z,100384.79
2018-01-20T08:33:26.626Z,100395.65
2018-01-20T08:35:52.366Z,100386.53
2018-01-20T08:38:18.110Z,100383.06
2018-01-20T08:40:43.844Z,100382.63
2018-01-20T08:43:09.587Z,100387.83
2018-01-20T08:45:35.322Z,100391.31
2018-01-20T08:48:01.071Z,100389.58
2018-01-20T08:50:26.827Z,100393.05
2018-01-20T08:52:52.574Z,100389.59
2018-01-20T08:55:18.322Z,100384.80
2018-01-20T08:57:44.071Z,100382.61
2018-01-20T09:00:09.834Z,100393.48
2018-01-20T09:02:35.568Z,100396.09
2018-01-20T09:05:01.315Z,100393.92
2018-01-20T09:07:27.061Z,100400.44
2018-01-20T09:09:52.811Z,100399.56
2018-01-20T09:12:18.554Z,100399.14
2018-01-20T09:14:44.298Z,100396.97
2018-01-20T09:17:10.050Z,100393.06
2018-01-20T09:19:35.790Z,100394.81
2018-01-20T09:22:01.522Z,100393.50
2018-01-20T09:24:27.262Z,100392.63
2018-01-20T09:26:53.002Z,100397.41
2018-01-20T09:29:18.751Z,100402.63
2018-01-20T09:31:44.504Z,100394.80
2018-01-20T09:34:10.251Z,100393.06
2018-01-20T09:36:35.989Z,100390.44
2018-01-20T09:39:01.738Z,100396.98
2018-01-20T09:41:27.489Z,100395.27
2018-01-20T09:43:53.222Z,100393.06
2018-01-20T09:46:18.969Z,100394.80
2018-01-20T09:48:44.710Z,100389.14
2018-01-20T09:51:10.459Z,100392.63
2018-01-20T09:53:36.210Z,100396.56
2018-01-20T09:56:01.955Z,100390.45
2018-01-20T09:58:27.695Z,100386.98
2018-01-20T10:00:53.446Z,100389.59
2018-01-20T10:03:19.187Z,100380.48
2018-01-20T10:05:44.942Z,100380.48
2018-01-20T10:08:10.678Z,100377.89
2018-01-20T10:10:36.414Z,100385.25
2018-01-20T10:13:02.150Z,100382.66
2018-01-20T10:15:27.903Z,100374.83
2018-01-20T10:17:53.639Z,100375.70
2018-01-20T10:20:19.370Z,100374.42
2018-01-20T10:22:45.127Z,100377.00
2018-01-20T10:25:10.900Z,100365.70
2018-01-20T10:27:36.606Z,100361.80
2018-01-20T10:30:02.407Z,100367.88
2018-01-20T10:32:28.183Z,100364.39
2018-01-20T10:34:53.926Z,100359.61
2018-01-20T10:37:19.768Z,100361.79
2018-01-20T10:39:45.531Z,100345.72
2018-01-20T10:42:11.299Z,100352.66
2018-01-20T10:44:37.037Z,100352.25
2018-01-20T10:47:02.778Z,100357.04
2018-01-20T10:49:28.511Z,100350.07
2018-01-20T10:51:54.262Z,100360.95
2018-01-20T10:54:20.023Z,100358.77
2018-01-20T10:56:45.778Z,100349.64
2018-01-20T10:59:11.522Z,100344.00
2018-01-20T11:01:37.298Z,100352.69
2018-01-20T11:04:03.035Z,100341.83
2018-01-20T11:06:28.774Z,100337.45
2018-01-20T11:08:54.518Z,100336.17
2018-01-20T11:11:20.254Z,100332.27
2018-01-20T11:13:46.002Z,100331.39
2018-01-20T11:16:11.746Z,100323.99
2018-01-20T11:18:37.499Z,100327.48
2018-01-20T11:21:10.075Z,100319.64
2018-01-20T11:23:35.814Z,100323.58
2018-01-20T11:26:01.546Z,100324.87
2018-01-20T11:28:27.301Z,100316.19
2018-01-20T11:30:53.046Z,100318.80
2018-01-20T11:33:18.805Z,100314.42
2018-01-20T11:35:44.563Z,100314.88
2018-01-20T11:38:10.346Z,100310.52
2018-01-20T11:40:36.082Z,100312.70
2018-01-20T11:43:01.823Z,100304.44
2018-01-20T11:45:27.566Z,100307.05
2018-01-20T11:47:53.302Z,100300.08
2018-01-20T11:50:19.159Z,100286.59
2018-01-20T11:52:44.977Z,100285.73
2018-01-20T11:55:10.726Z,100278.77
2018-01-20T11:57:36.503Z,100277.04
2018-01-20T12:00:02.345Z,100266.17
2018-01-20T12:02:28.098Z,100258.80
2018-01-20T12:04:53.851Z,100266.59
2018-01-20T12:07:19.601Z,100265.30
2018-01-20T12:09:47.461Z,100260.09
2018-01-20T12:12:13.206Z,100260.09
2018-01-20T12:14:38.968Z,100255.74
2018-01-20T12:17:04.798Z,100251.37
2018-01-20T12:19:30.529Z,100247.03
2018-01-20T12:21:56.317Z,100247.48
2018-01-20T12:24:22.074Z,100247.91
2018-01-20T12:26:47.826Z,100233.98
2018-01-20T12:29:13.587Z,100228.79
2018-01-20T12:31:39.511Z,100233.99
2018-01-20T12:34:05.455Z,100233.98
2018-01-20T12:36:31.698Z,100232.70
2018-01-20T12:38:57.450Z,100230.94
2018-01-20T12:41:23.219Z,100221.80
2018-01-20T12:43:48.978Z,100221.78
2018-01-20T12:46:14.742Z,100219.64
2018-01-20T12:48:40.661Z,100222.23
2018-01-20T12:51:06.414Z,100210.94
2018-01-20T12:53:32.458Z,100217.91
2018-01-20T12:55:58.223Z,100214.84
2018-01-20T12:58:23.962Z,100215.73
2018-01-20T13:00:49.715Z,100207.89
2018-01-20T13:03:15.463Z,100204.38
2018-01-20T13:05:41.215Z,100209.18
2018-01-20T13:08:06.986Z,100202.20
2018-01-20T13:10:32.730Z,100205.70
2018-01-20T13:12:58.544Z,100196.98
2018-01-20T13:15:24.330Z,100193.53
2018-01-20T13:17:50.151Z,100196.13
2018-01-20T13:20:15.898Z,100197.01
2018-01-20T13:22:41.655Z,100193.51
2018-01-20T13:25:07.406Z,100187.01
2018-01-20T13:27:33.160Z,100184.81
2018-01-20T13:29:58.906Z,100183.96
2018-01-20T13:32:24.658Z,100180.92
2018-01-20T13:34:50.402Z,100183.11
2018-01-20T13:37:16.154Z,100182.22
2018-01-20T13:39:42.007Z,100172.64
2018-01-20T13:42:07.781Z,100180.05
2018-01-20T13:44:33.515Z,100176.98
2018-01-20T13:46:59.399Z,100174.84
2018-01-20T13:49:25.200Z,100179.59
2018-01-20T13:51:50.946Z,100173.06
2018-01-20T13:54:16.700Z,100166.13
2018-01-20T13:56:42.450Z,100165.69
2018-01-20T13:59:08.235Z,100170.88
2018-01-20T14:01:33.986Z,100170.47
2018-01-20T14:03:59.762Z,100164.77
2018-01-20T14:06:25.507Z,100160.02
2018-01-20T14:08:51.288Z,100166.09
2018-01-20T14:11:17.015Z,100167.86
2018-01-20T14:13:42.766Z,100172.20
2018-01-20T14:16:08.521Z,100166.98
2018-01-20T14:18:34.276Z,100160.91
2018-01-20T14:21:00.021Z,100161.31
2018-01-20T14:23:25.758Z,100157.41
2018-01-20T14:25:51.487Z,100157.38
2018-01-20T14:28:17.231Z,100155.63
2018-01-20T14:30:42.971Z,100158.68
2018-01-20T14:33:08.714Z,100159.55
2018-01-20T14:35:34.484Z,100158.22
2018-01-20T14:38:00.234Z,100153.91
2018-01-20T14:40:25.973Z,100153.03
2018-01-20T14:42:51.701Z,100157.84
2018-01-20T14:45:18.333Z,100150.05
2018-01-20T14:47:44.157Z,100152.22
2018-01-20T14:50:09.903Z,100147.92
2018-01-20T14:52:35.661Z,100157.05
2018-01-20T14:55:01.414Z,100153.15
2018-01-20T14:57:27.155Z,100153.57
2018-01-20T14:59:52.911Z,100150.53
2018-01-20T15:02:20.062Z,100147.92
2018-01-20T15:04:45.903Z,100149.62
2018-01-20T15:07:11.635Z,100155.30
2018-01-20T15:09:37.386Z,100152.25
2018-01-20T15:12:03.131Z,100151.39
2018-01-20T15:14:28.867Z,100159.65
2018-01-20T15:16:54.598Z,100157.02
2018-01-20T15:19:20.347Z,100148.76
2018-01-20T15:21:46.086Z,100153.99
2018-01-20T15:24:11.810Z,100152.23
2018-01-20T15:26:37.552Z,100154.86
2018-01-20T15:29:03.278Z,100154.43
2018-01-20T15:31:29.019Z,100151.80
2018-01-20T15:33:54.742Z,100154.41
2018-01-20T15:36:20.495Z,100158.34
2018-01-20T15:38:46.234Z,100158.33
2018-01-20T15:41:11.978Z,100159.22
2018-01-20T15:43:37.703Z,100153.55
2018-01-20T15:46:03.483Z,100150.51
2018-01-20T15:48:29.225Z,100152.25
2018-01-20T15:50:54.960Z,100146.59
2018-01-20T15:53:20.714Z,100149.63
2018-01-20T15:55:46.462Z,100150.94
2018-01-20T15:58:12.243Z,100149.64
2018-01-20T16:00:37.982Z,100143.58
2018-01-20T16:03:03.731Z,100141.38
2018-01-20T16:05:29.484Z,100140.49
2018-01-20T16:07:55.243Z,100139.64
2018-01-20T16:10:21.006Z,100137.92
2018-01-20T16:12:46.774Z,100135.73
2018-01-20T16:15:12.522Z,100137.91
2018-01-20T16:17:38.274Z,100136.60
2018-01-20T16:20:04.016Z,100136.62
2018-01-20T16:22:29.758Z,100135.30
2018-01-20T16:24:55.486Z,100137.92
2018-01-20T16:27:21.256Z,100137.48
2018-01-20T16:29:46.997Z,100127.09
2018-01-20T16:32:12.770Z,100130.55
2018-01-20T16:34:38.520Z,100125.78
2018-01-20T16:37:04.268Z,100129.70
2018-01-20T16:39:30.029Z,100129.68
2018-01-20T16:41:55.770Z,100121.84
2018-01-20T16:44:21.507Z,100127.07
2018-01-20T16:46:47.251Z,100129.66
2018-01-20T16:49:12.993Z,100124.46
2018-01-20T16:51:38.720Z,100128.80
2018-01-20T16:54:04.470Z,100121.42
2018-01-20T16:56:30.375Z,100131.00
2018-01-20T16:58:56.123Z,100126.64
2018-01-20T17:01:21.867Z,100136.20
2018-01-20T17:03:47.607Z,100134.92
2018-01-20T17:06:13.338Z,100141.86
2018-01-20T17:08:39.097Z,100146.15
2018-01-20T17:11:04.846Z,100144.47
2018-01-20T17:13:30.591Z,100148.38
2018-01-20T17:15:56.343Z,100150.56
2018-01-20T17:18:22.101Z,100150.11
2018-01-20T17:20:47.862Z,100145.37
2018-01-20T17:23:13.668Z,100150.58
2018-01-20T17:25:39.426Z,100144.48
2018-01-20T17:28:05.179Z,100141.45
2018-01-20T17:30:30.932Z,100148.39
2018-01-20T17:32:56.676Z,100147.09
2018-01-20T17:35:22.417Z,100144.06
2018-01-20T17:37:48.150Z,100138.42
2018-01-20T17:40:13.907Z,100146.24
2018-01-20T17:42:39.634Z,100147.52
2018-01-20T17:45:05.381Z,100143.20
2018-01-20T17:47:31.138Z,100144.95
2018-01-20T17:49:56.902Z,100142.33
2018-01-20T17:52:22.648Z,100142.33
2018-01-20T17:54:48.419Z,100141.03
2018-01-20T17:57:14.146Z,100141.06
2018-01-20T17:59:39.898Z,100144.52
2018-01-20T18:02:05.670Z,100149.31
2018-01-20T18:04:31.418Z,100146.70
2018-01-20T18:06:57.166Z,100151.05
2018-01-20T18:09:22.916Z,100154.11
2018-01-20T18:11:48.678Z,100153.23
2018-01-20T18:14:14.434Z,100151.92
2018-01-20T18:16:40.194Z,100157.56
2018-01-20T18:19:05.939Z,100154.90
2018-01-20T18:21:31.696Z,100163.62
2018-01-20T18:23:57.486Z,100156.58
2018-01-20T18:26:23.263Z,100151.37
2018-01-20T18:28:49.007Z,100150.92
2018-01-20T18:31:14.758Z,100155.59
2018-01-20T18:33:40.490Z,100155.61
2018-01-20T18:36:06.244Z,100159.53
2018-01-20T18:38:31.974Z,100158.69
2018-01-20T18:40:57.731Z,100153.80
2018-01-20T18:43:23.483Z,100157.29
2018-01-20T18:45:49.239Z,100154.19
2018-01-20T18:48:14.980Z,100152.92
2018-01-20T18:50:40.714Z,100157.95
2018-01-20T18:53:06.483Z,100167.28
2018-01-20T18:55:32.231Z,100165.03
2018-01-20T18:57:57.982Z,100158.38
2018-01-20T19:00:23.721Z,100164.05
2018-01-20T19:02:49.482Z,100165.59
2018-01-20T19:05:15.227Z,100169.20
2018-01-20T19:07:40.981Z,100175.73
2018-01-20T19:10:06.762Z,100169.64
2018-01-20T19:12:32.511Z,100170.12
2018-01-20T19:14:58.262Z,100177.49
2018-01-20T19:17:24.021Z,100180.55
2018-01-20T19:19:49.750Z,100184.01
2018-01-20T19:22:15.486Z,100180.55
2018-01-20T19:24:41.214Z,100175.77
2018-01-20T19:27:06.960Z,100182.66
2018-01-20T19:29:32.696Z,100187.02
2018-01-20T19:31:58.431Z,100190.59
2018-01-20T19:34:24.195Z,100189.30
2018-01-20T19:36:49.938Z,100194.48
2018-01-20T19:39:15.680Z,100188.84
2018-01-20T19:41:41.415Z,100193.19
2018-01-20T19:44:07.154Z,100193.19
2018-01-20T19:46:32.887Z,100184.50
2018-01-20T19:48:58.653Z,100192.77
2018-01-20T19:51:24.386Z,100190.59
2018-01-20T19:53:50.142Z,100194.50
2018-01-20T19:56:15.879Z,100192.33
2018-01-20T19:58:41.630Z,100192.31
2018-01-20T20:01:07.384Z,100192.34
2018-01-20T20:03:33.163Z,100193.63
2018-01-20T20:05:58.910Z,100194.08
2018-01-20T20:08:24.662Z,100193.22
2018-01-20T20:10:50.401Z,100197.97
2018-01-20T20:13:16.135Z,100198.86
2018-01-20T20:15:41.892Z,100198.00
2018-01-20T20:18:07.687Z,100199.74
2018-01-20T20:20:33.414Z,100202.77
2018-01-20T20:22:59.167Z,100198.84
2018-01-20T20:25:24.921Z,100193.21
2018-01-20T20:27:50.658Z,100207.11
2018-01-20T20:30:17.203Z,100207.13
2018-01-20T20:32:42.948Z,100209.29
2018-01-20T20:35:08.700Z,100214.48
2018-01-20T20:37:34.444Z,100212.34
2018-01-20T20:40:00.208Z,100209.72
2018-01-20T20:42:25.973Z,100209.72
2018-01-20T20:44:51.735Z,100211.02
2018-01-20T20:47:17.483Z,100211.03
2018-01-20T20:49:43.231Z,100216.67
2018-01-20T20:52:08.995Z,100215.79
2018-01-20T20:54:34.789Z,100217.97
2018-01-20T20:57:00.540Z,100220.16
2018-01-20T20:59:26.350Z,100225.78
2018-01-20T21:01:52.099Z,100222.73
2018-01-20T21:04:17.850Z,100223.20
2018-01-20T21:06:43.610Z,100224.48
2018-01-20T21:09:09.343Z,100217.55
2018-01-20T21:11:35.087Z,100228.39
2018-01-20T21:14:00.825Z,100231.42
2018-01-20T21:16:26.575Z,100231.42
2018-01-20T21:18:52.311Z,100231.42
2018-01-20T21:21:18.066Z,100231.44
2018-01-20T21:23:43.798Z,100233.19
2018-01-20T21:26:09.546Z,100236.64
2018-01-20T21:28:35.286Z,100234.47
2018-01-20T21:31:01.027Z,100234.91
2018-01-20T21:33:26.770Z,100238.84
2018-01-20T21:35:52.514Z,100236.23
2018-01-20T21:38:18.250Z,100241.88
2018-01-20T21:40:43.994Z,100244.03
2018-01-20T21:43:09.741Z,100241.85
2018-01-20T21:45:35.475Z,100253.16
2018-01-20T21:48:01.259Z,100249.27
2018-01-20T21:50:27.034Z,100252.73
2018-01-20T21:52:52.778Z,100254.91
2018-01-20T21:55:18.531Z,100264.45
2018-01-20T21:57:44.306Z,100261.00
2018-01-20T22:00:10.059Z,100262.30
2018-01-20T22:02:35.987Z,100269.22
2018-01-20T22:05:01.754Z,100266.62
2018-01-20T22:07:27.506Z,100270.98
2018-01-20T22:09:53.255Z,100277.05
2018-01-20T22:12:19.018Z,100274.44
2018-01-20T22:14:44.767Z,100280.97
2018-01-20T22:17:10.522Z,100286.16
2018-01-20T22:19:36.271Z,100285.74
2018-01-20T22:22:02.028Z,100284.87
2018-01-20T22:24:27.758Z,100287.05
2018-01-20T22:26:53.503Z,100289.23
2018-01-20T22:29:19.258Z,100287.47
2018-01-20T22:31:45.004Z,100287.05
2018-01-20T22:34:11.570Z,100282.27
2018-01-20T22:36:37.299Z,100289.67
2018-01-20T22:39:03.050Z,100286.17
2018-01-20T22:41:28.793Z,100292.28
2018-01-20T22:46:27.154Z,100293.14
2018-01-20T22:48:52.904Z,100297.47
2018-01-20T22:51:18.643Z,100299.22
2018-01-20T22:53:44.397Z,100306.62
2018-01-20T22:56:10.154Z,100311.81
2018-01-20T22:58:35.915Z,100317.03
2018-01-20T23:01:07.871Z,100316.16
2018-01-20T23:03:33.631Z,100319.63
2018-01-20T23:05:59.380Z,100325.29
2018-01-20T23:08:25.142Z,100327.48
2018-01-20T23:10:50.891Z,100330.50
2018-01-20T23:13:16.650Z,100339.20
2018-01-20T23:15:42.393Z,100339.63
2018-01-20T23:18:08.143Z,100339.20
2018-01-20T23:20:33.896Z,100343.11
2018-01-20T23:22:59.651Z,100341.39
2018-01-20T23:25:25.406Z,100346.60
2018-01-20T23:27:51.162Z,100353.56
2018-01-20T23:30:16.941Z,100352.24
2018-01-20T23:32:42.690Z,100350.92
2018-01-20T23:35:08.444Z,100357.83
2018-01-20T23:37:34.207Z,100357.81
2018-01-20T23:39:59.966Z,100355.21
2018-01-20T23:42:25.697Z,100366.11
2018-01-20T23:44:51.459Z,100362.21
2018-01-20T23:47:17.202Z,100363.06
2018-01-20T23:49:42.947Z,100364.38
2018-01-20T23:52:08.694Z,100365.63
2018-01-20T23:54:34.441Z,100362.18
2018-01-20T23:57:07.325Z,100358.63
2018-01-20T23:59:33.111Z,100368.57
